sensor_id;sensor_type;location;lat;lon;timestamp;temperature;humidity
75457;SHT31;64036;48.266;14.192;2022-10-29T00:00:28;11.14;91.19
75457;SHT31;64036;48.266;14.192;2022-10-29T00:02:54;11.15;91.21
75457;SHT31;64036;48.266;14.192;2022-10-29T00:05:19;11.14;91.20
75457;SHT31;64036;48.266;14.192;2022-10-29T00:07:45;11.14;91.23
75457;SHT31;64036;48.266;14.192;2022-10-29T00:10:10;11.12;91.21
75457;SHT31;64036;48.266;14.192;2022-10-29T00:12:36;11.11;91.30
75457;SHT31;64036;48.266;14.192;2022-10-29T00:15:02;11.11;91.32
75457;SHT31;64036;48.266;14.192;2022-10-29T00:17:28;11.11;91.37
75457;SHT31;64036;48.266;14.192;2022-10-29T00:19:54;11.07;91.47
75457;SHT31;64036;48.266;14.192;2022-10-29T00:22:20;11.05;91.56
75457;SHT31;64036;48.266;14.192;2022-10-29T00:24:48;11.05;91.57
75457;SHT31;64036;48.266;14.192;2022-10-29T00:27:14;11.05;91.62
75457;SHT31;64036;48.266;14.192;2022-10-29T00:29:39;11.05;91.58
75457;SHT31;64036;48.266;14.192;2022-10-29T00:32:05;11.06;91.57
75457;SHT31;64036;48.266;14.192;2022-10-29T00:34:30;11.06;91.51
75457;SHT31;64036;48.266;14.192;2022-10-29T00:36:56;11.03;91.50
75457;SHT31;64036;48.266;14.192;2022-10-29T00:39:21;11.01;91.56
75457;SHT31;64036;48.266;14.192;2022-10-29T00:41:47;11.01;91.61
75457;SHT31;64036;48.266;14.192;2022-10-29T00:46:51;11.03;91.61
75457;SHT31;64036;48.266;14.192;2022-10-29T00:49:22;11.03;91.60
75457;SHT31;64036;48.266;14.192;2022-10-29T00:51:49;11.04;91.60
75457;SHT31;64036;48.266;14.192;2022-10-29T00:54:15;11.05;91.60
75457;SHT31;64036;48.266;14.192;2022-10-29T00:56:46;11.07;91.60
75457;SHT31;64036;48.266;14.192;2022-10-29T00:59:17;11.07;91.60
75457;SHT31;64036;48.266;14.192;2022-10-29T01:01:43;11.10;91.54
75457;SHT31;64036;48.266;14.192;2022-10-29T01:04:11;11.13;91.53
75457;SHT31;64036;48.266;14.192;2022-10-29T01:06:37;11.15;91.50
75457;SHT31;64036;48.266;14.192;2022-10-29T01:09:04;11.13;91.46
75457;SHT31;64036;48.266;14.192;2022-10-29T01:11:39;11.10;91.51
75457;SHT31;64036;48.266;14.192;2022-10-29T01:14:51;11.08;91.59
75457;SHT31;64036;48.266;14.192;2022-10-29T01:31:38;11.10;91.62
75457;SHT31;64036;48.266;14.192;2022-10-29T01:37:40;11.05;91.50
75457;SHT31;64036;48.266;14.192;2022-10-29T01:46:11;11.01;91.60
75457;SHT31;64036;48.266;14.192;2022-10-29T01:48:47;11.02;91.54
75457;SHT31;64036;48.266;14.192;2022-10-29T01:51:20;11.02;91.50
75457;SHT31;64036;48.266;14.192;2022-10-29T01:53:50;11.03;91.43
75457;SHT31;64036;48.266;14.192;2022-10-29T01:56:16;11.02;91.40
75457;SHT31;64036;48.266;14.192;2022-10-29T01:58:43;11.03;91.37
75457;SHT31;64036;48.266;14.192;2022-10-29T02:04:43;11.03;91.29
75457;SHT31;64036;48.266;14.192;2022-10-29T02:10:02;11.04;91.16
75457;SHT31;64036;48.266;14.192;2022-10-29T02:12:45;11.03;91.18
75457;SHT31;64036;48.266;14.192;2022-10-29T02:15:36;11.07;91.19
75457;SHT31;64036;48.266;14.192;2022-10-29T02:18:04;11.10;91.06
75457;SHT31;64036;48.266;14.192;2022-10-29T02:20:31;11.10;91.01
75457;SHT31;64036;48.266;14.192;2022-10-29T02:22:58;11.12;91.02
75457;SHT31;64036;48.266;14.192;2022-10-29T02:25:24;11.15;91.00
75457;SHT31;64036;48.266;14.192;2022-10-29T02:27:50;11.16;90.97
75457;SHT31;64036;48.266;14.192;2022-10-29T02:30:16;11.18;90.90
75457;SHT31;64036;48.266;14.192;2022-10-29T02:32:42;11.20;90.91
75457;SHT31;64036;48.266;14.192;2022-10-29T02:35:11;11.21;90.86
75457;SHT31;64036;48.266;14.192;2022-10-29T02:37:37;11.20;90.80
75457;SHT31;64036;48.266;14.192;2022-10-29T02:40:02;11.22;90.79
75457;SHT31;64036;48.266;14.192;2022-10-29T02:42:28;11.22;90.79
75457;SHT31;64036;48.266;14.192;2022-10-29T02:44:54;11.23;90.71
75457;SHT31;64036;48.266;14.192;2022-10-29T02:47:19;11.24;90.66
75457;SHT31;64036;48.266;14.192;2022-10-29T02:49:45;11.22;90.55
75457;SHT31;64036;48.266;14.192;2022-10-29T02:52:11;11.22;90.59
75457;SHT31;64036;48.266;14.192;2022-10-29T02:54:36;11.20;90.47
75457;SHT31;64036;48.266;14.192;2022-10-29T02:57:03;11.18;90.45
75457;SHT31;64036;48.266;14.192;2022-10-29T02:59:29;11.16;90.46
75457;SHT31;64036;48.266;14.192;2022-10-29T03:01:55;11.16;90.52
75457;SHT31;64036;48.266;14.192;2022-10-29T03:04:20;11.15;90.48
75457;SHT31;64036;48.266;14.192;2022-10-29T03:06:46;11.15;90.50
75457;SHT31;64036;48.266;14.192;2022-10-29T03:09:11;11.16;90.51
75457;SHT31;64036;48.266;14.192;2022-10-29T03:11:37;11.15;90.52
75457;SHT31;64036;48.266;14.192;2022-10-29T03:14:02;11.18;90.58
75457;SHT31;64036;48.266;14.192;2022-10-29T03:16:28;11.18;90.59
75457;SHT31;64036;48.266;14.192;2022-10-29T03:18:54;11.19;90.59
75457;SHT31;64036;48.266;14.192;2022-10-29T03:21:19;11.21;90.60
75457;SHT31;64036;48.266;14.192;2022-10-29T03:23:45;11.22;90.56
75457;SHT31;64036;48.266;14.192;2022-10-29T03:26:10;11.20;90.48
75457;SHT31;64036;48.266;14.192;2022-10-29T03:28:36;11.18;90.48
75457;SHT31;64036;48.266;14.192;2022-10-29T03:31:02;11.16;90.50
75457;SHT31;64036;48.266;14.192;2022-10-29T03:33:27;11.18;90.60
75457;SHT31;64036;48.266;14.192;2022-10-29T03:35:57;11.21;90.59
75457;SHT31;64036;48.266;14.192;2022-10-29T03:38:28;11.19;90.54
75457;SHT31;64036;48.266;14.192;2022-10-29T03:40:54;11.20;90.54
75457;SHT31;64036;48.266;14.192;2022-10-29T03:43:20;11.17;90.47
75457;SHT31;64036;48.266;14.192;2022-10-29T03:45:49;11.17;90.56
75457;SHT31;64036;48.266;14.192;2022-10-29T03:48:20;11.17;90.54
75457;SHT31;64036;48.266;14.192;2022-10-29T03:50:54;11.14;90.50
75457;SHT31;64036;48.266;14.192;2022-10-29T03:53:25;11.11;90.55
75457;SHT31;64036;48.266;14.192;2022-10-29T03:55:52;11.11;90.61
75457;SHT31;64036;48.266;14.192;2022-10-29T03:58:20;11.14;90.69
75457;SHT31;64036;48.266;14.192;2022-10-29T04:03:19;11.17;90.50
75457;SHT31;64036;48.266;14.192;2022-10-29T04:05:45;11.19;90.46
75457;SHT31;64036;48.266;14.192;2022-10-29T04:08:10;11.18;90.38
75457;SHT31;64036;48.266;14.192;2022-10-29T04:10:42;11.19;90.46
75457;SHT31;64036;48.266;14.192;2022-10-29T04:13:14;11.18;90.37
75457;SHT31;64036;48.266;14.192;2022-10-29T04:15:40;11.22;90.31
75457;SHT31;64036;48.266;14.192;2022-10-29T04:18:07;11.24;90.30
75457;SHT31;64036;48.266;14.192;2022-10-29T04:20:33;11.26;90.23
75457;SHT31;64036;48.266;14.192;2022-10-29T04:23:00;11.23;90.01
75457;SHT31;64036;48.266;14.192;2022-10-29T04:25:26;11.21;89.93
75457;SHT31;64036;48.266;14.192;2022-10-29T04:27:54;11.19;89.90
75457;SHT31;64036;48.266;14.192;2022-10-29T04:30:20;11.17;89.99
75457;SHT31;64036;48.266;14.192;2022-10-29T04:32:48;11.14;89.89
75457;SHT31;64036;48.266;14.192;2022-10-29T04:35:14;11.10;89.89
75457;SHT31;64036;48.266;14.192;2022-10-29T04:37:39;11.09;89.99
75457;SHT31;64036;48.266;14.192;2022-10-29T04:40:05;11.11;90.04
75457;SHT31;64036;48.266;14.192;2022-10-29T04:42:37;11.09;89.90
75457;SHT31;64036;48.266;14.192;2022-10-29T04:45:04;11.08;89.90
75457;SHT31;64036;48.266;14.192;2022-10-29T04:47:32;11.06;89.88
75457;SHT31;64036;48.266;14.192;2022-10-29T04:49:58;11.07;89.93
75457;SHT31;64036;48.266;14.192;2022-10-29T04:52:23;11.07;89.87
75457;SHT31;64036;48.266;14.192;2022-10-29T04:54:49;11.07;89.81
75457;SHT31;64036;48.266;14.192;2022-10-29T04:57:15;11.06;89.79
75457;SHT31;64036;48.266;14.192;2022-10-29T04:59:40;11.05;89.83
75457;SHT31;64036;48.266;14.192;2022-10-29T05:02:06;11.03;89.82
75457;SHT31;64036;48.266;14.192;2022-10-29T05:04:31;11.03;89.81
75457;SHT31;64036;48.266;14.192;2022-10-29T05:06:57;11.01;89.81
75457;SHT31;64036;48.266;14.192;2022-10-29T05:09:22;11.01;89.81
75457;SHT31;64036;48.266;14.192;2022-10-29T05:11:48;11.03;89.81
75457;SHT31;64036;48.266;14.192;2022-10-29T05:14:13;11.02;89.70
75457;SHT31;64036;48.266;14.192;2022-10-29T05:16:39;10.97;89.62
75457;SHT31;64036;48.266;14.192;2022-10-29T05:19:04;10.93;89.73
75457;SHT31;64036;48.266;14.192;2022-10-29T05:21:30;10.91;89.70
75457;SHT31;64036;48.266;14.192;2022-10-29T05:23:56;10.87;89.73
75457;SHT31;64036;48.266;14.192;2022-10-29T05:26:22;10.84;89.77
75457;SHT31;64036;48.266;14.192;2022-10-29T05:28:48;10.83;89.88
75457;SHT31;64036;48.266;14.192;2022-10-29T05:31:15;10.86;90.08
75457;SHT31;64036;48.266;14.192;2022-10-29T05:33:42;10.88;90.10
75457;SHT31;64036;48.266;14.192;2022-10-29T05:36:07;10.91;90.06
75457;SHT31;64036;48.266;14.192;2022-10-29T05:38:33;10.90;90.08
75457;SHT31;64036;48.266;14.192;2022-10-29T05:40:59;10.93;90.10
75457;SHT31;64036;48.266;14.192;2022-10-29T05:43:24;10.94;90.10
75457;SHT31;64036;48.266;14.192;2022-10-29T05:45:50;10.95;89.99
75457;SHT31;64036;48.266;14.192;2022-10-29T05:48:16;10.94;90.02
75457;SHT31;64036;48.266;14.192;2022-10-29T05:50:41;10.95;90.09
75457;SHT31;64036;48.266;14.192;2022-10-29T05:53:08;10.97;90.09
75457;SHT31;64036;48.266;14.192;2022-10-29T05:55:36;10.98;90.06
75457;SHT31;64036;48.266;14.192;2022-10-29T05:58:04;11.01;90.07
75457;SHT31;64036;48.266;14.192;2022-10-29T06:00:34;11.02;89.98
75457;SHT31;64036;48.266;14.192;2022-10-29T06:03:03;11.02;89.95
75457;SHT31;64036;48.266;14.192;2022-10-29T06:05:35;11.02;89.89
75457;SHT31;64036;48.266;14.192;2022-10-29T06:08:00;11.03;89.89
75457;SHT31;64036;48.266;14.192;2022-10-29T06:10:27;11.05;89.89
75457;SHT31;64036;48.266;14.192;2022-10-29T06:12:53;11.08;89.79
75457;SHT31;64036;48.266;14.192;2022-10-29T06:15:19;11.09;89.67
75457;SHT31;64036;48.266;14.192;2022-10-29T06:17:46;11.07;89.54
75457;SHT31;64036;48.266;14.192;2022-10-29T06:20:12;11.06;89.51
75457;SHT31;64036;48.266;14.192;2022-10-29T06:22:41;11.05;89.57
75457;SHT31;64036;48.266;14.192;2022-10-29T06:25:07;11.06;89.51
75457;SHT31;64036;48.266;14.192;2022-10-29T06:27:34;11.08;89.56
75457;SHT31;64036;48.266;14.192;2022-10-29T06:30:00;11.11;89.50
75457;SHT31;64036;48.266;14.192;2022-10-29T06:32:25;11.12;89.45
75457;SHT31;64036;48.266;14.192;2022-10-29T06:34:51;11.12;89.29
75457;SHT31;64036;48.266;14.192;2022-10-29T06:37:16;11.13;89.30
75457;SHT31;64036;48.266;14.192;2022-10-29T06:39:42;11.15;89.24
75457;SHT31;64036;48.266;14.192;2022-10-29T06:42:07;11.18;89.27
75457;SHT31;64036;48.266;14.192;2022-10-29T06:44:33;11.23;89.31
75457;SHT31;64036;48.266;14.192;2022-10-29T06:46:58;11.27;89.30
75457;SHT31;64036;48.266;14.192;2022-10-29T06:49:24;11.31;89.26
75457;SHT31;64036;48.266;14.192;2022-10-29T06:51:50;11.33;89.25
75457;SHT31;64036;48.266;14.192;2022-10-29T06:54:16;11.34;89.19
75457;SHT31;64036;48.266;14.192;2022-10-29T06:56:41;11.33;89.06
75457;SHT31;64036;48.266;14.192;2022-10-29T06:59:07;11.28;88.91
75457;SHT31;64036;48.266;14.192;2022-10-29T07:01:32;11.28;89.13
75457;SHT31;64036;48.266;14.192;2022-10-29T07:03:58;11.31;89.13
75457;SHT31;64036;48.266;14.192;2022-10-29T07:06:24;11.31;89.01
75457;SHT31;64036;48.266;14.192;2022-10-29T07:08:50;11.31;88.93
75457;SHT31;64036;48.266;14.192;2022-10-29T07:11:15;11.35;89.02
75457;SHT31;64036;48.266;14.192;2022-10-29T07:13:41;11.40;88.91
75457;SHT31;64036;48.266;14.192;2022-10-29T07:16:07;11.43;88.84
75457;SHT31;64036;48.266;14.192;2022-10-29T07:18:33;11.45;88.74
75457;SHT31;64036;48.266;14.192;2022-10-29T07:21:00;11.42;88.42
75457;SHT31;64036;48.266;14.192;2022-10-29T07:23:27;11.36;88.51
75457;SHT31;64036;48.266;14.192;2022-10-29T07:25:53;11.39;88.55
75457;SHT31;64036;48.266;14.192;2022-10-29T07:28:19;11.44;88.62
75457;SHT31;64036;48.266;14.192;2022-10-29T07:30:50;11.49;88.59
75457;SHT31;64036;48.266;14.192;2022-10-29T07:33:17;11.52;88.59
75457;SHT31;64036;48.266;14.192;2022-10-29T07:35:43;11.56;88.52
75457;SHT31;64036;48.266;14.192;2022-10-29T07:38:10;11.62;88.55
75457;SHT31;64036;48.266;14.192;2022-10-29T07:40:45;11.63;88.32
75457;SHT31;64036;48.266;14.192;2022-10-29T07:43:13;11.66;88.48
75457;SHT31;64036;48.266;14.192;2022-10-29T07:45:39;11.68;88.32
75457;SHT31;64036;48.266;14.192;2022-10-29T07:48:07;11.71;88.28
75457;SHT31;64036;48.266;14.192;2022-10-29T07:50:34;11.73;88.26
75457;SHT31;64036;48.266;14.192;2022-10-29T07:53:01;11.69;88.18
75457;SHT31;64036;48.266;14.192;2022-10-29T07:55:28;11.65;88.27
75457;SHT31;64036;48.266;14.192;2022-10-29T07:57:54;11.64;88.33
75457;SHT31;64036;48.266;14.192;2022-10-29T08:00:23;11.69;88.51
75457;SHT31;64036;48.266;14.192;2022-10-29T08:02:53;11.70;88.37
75457;SHT31;64036;48.266;14.192;2022-10-29T08:05:19;11.68;88.42
75457;SHT31;64036;48.266;14.192;2022-10-29T08:07:46;11.70;88.53
75457;SHT31;64036;48.266;14.192;2022-10-29T08:10:11;11.74;88.32
75457;SHT31;64036;48.266;14.192;2022-10-29T08:12:37;11.78;88.27
75457;SHT31;64036;48.266;14.192;2022-10-29T08:15:03;11.86;88.36
75457;SHT31;64036;48.266;14.192;2022-10-29T08:17:30;11.91;88.17
75457;SHT31;64036;48.266;14.192;2022-10-29T08:19:56;11.94;88.00
75457;SHT31;64036;48.266;14.192;2022-10-29T08:22:22;11.91;87.94
75457;SHT31;64036;48.266;14.192;2022-10-29T08:24:48;11.82;87.90
75457;SHT31;64036;48.266;14.192;2022-10-29T08:27:13;11.78;88.08
75457;SHT31;64036;48.266;14.192;2022-10-29T08:29:39;11.76;88.34
75457;SHT31;64036;48.266;14.192;2022-10-29T08:32:05;11.78;88.40
75457;SHT31;64036;48.266;14.192;2022-10-29T08:34:30;11.80;88.35
75457;SHT31;64036;48.266;14.192;2022-10-29T08:36:56;11.81;88.27
75457;SHT31;64036;48.266;14.192;2022-10-29T08:39:21;11.82;88.30
75457;SHT31;64036;48.266;14.192;2022-10-29T08:50:42;12.10;88.09
75457;SHT31;64036;48.266;14.192;2022-10-29T08:53:19;12.20;88.17
75457;SHT31;64036;48.266;14.192;2022-10-29T08:55:48;12.30;88.10
75457;SHT31;64036;48.266;14.192;2022-10-29T09:01:17;12.40;87.54
75457;SHT31;64036;48.266;14.192;2022-10-29T09:03:45;12.42;87.44
75457;SHT31;64036;48.266;14.192;2022-10-29T09:09:38;12.49;87.12
75457;SHT31;64036;48.266;14.192;2022-10-29T09:12:36;12.55;87.21
75457;SHT31;64036;48.266;14.192;2022-10-29T09:15:29;12.62;87.25
75457;SHT31;64036;48.266;14.192;2022-10-29T09:21:51;12.81;87.45
75457;SHT31;64036;48.266;14.192;2022-10-29T09:30:40;13.07;86.82
75457;SHT31;64036;48.266;14.192;2022-10-29T09:33:37;13.11;86.75
75457;SHT31;64036;48.266;14.192;2022-10-29T09:36:09;13.06;86.50
75457;SHT31;64036;48.266;14.192;2022-10-29T09:38:44;13.00;86.66
75457;SHT31;64036;48.266;14.192;2022-10-29T09:41:24;13.07;87.05
75457;SHT31;64036;48.266;14.192;2022-10-29T09:47:06;13.31;86.89
75457;SHT31;64036;48.266;14.192;2022-10-29T09:53:04;13.54;86.25
75457;SHT31;64036;48.266;14.192;2022-10-29T09:55:37;13.63;85.89
75457;SHT31;64036;48.266;14.192;2022-10-29T09:58:05;13.75;85.75
75457;SHT31;64036;48.266;14.192;2022-10-29T10:00:47;13.87;85.46
75457;SHT31;64036;48.266;14.192;2022-10-29T10:06:08;14.03;85.24
75457;SHT31;64036;48.266;14.192;2022-10-29T10:09:22;14.06;85.24
75457;SHT31;64036;48.266;14.192;2022-10-29T10:11:35;14.07;84.73
75457;SHT31;64036;48.266;14.192;2022-10-29T10:14:18;14.09;84.98
75457;SHT31;64036;48.266;14.192;2022-10-29T10:16:55;14.15;84.92
75457;SHT31;64036;48.266;14.192;2022-10-29T10:19:23;14.13;84.65
75457;SHT31;64036;48.266;14.192;2022-10-29T10:22:02;14.16;84.55
75457;SHT31;64036;48.266;14.192;2022-10-29T10:29:43;14.10;84.00
75457;SHT31;64036;48.266;14.192;2022-10-29T10:32:29;14.15;84.09
75457;SHT31;64036;48.266;14.192;2022-10-29T10:34:55;14.25;84.08
75457;SHT31;64036;48.266;14.192;2022-10-29T10:37:21;14.36;83.80
75457;SHT31;64036;48.266;14.192;2022-10-29T10:39:52;14.46;83.46
75457;SHT31;64036;48.266;14.192;2022-10-29T10:42:26;14.52;83.17
75457;SHT31;64036;48.266;14.192;2022-10-29T10:45:04;14.49;83.38
75457;SHT31;64036;48.266;14.192;2022-10-29T10:47:46;14.54;83.49
75457;SHT31;64036;48.266;14.192;2022-10-29T10:50:25;14.60;83.44
75457;SHT31;64036;48.266;14.192;2022-10-29T10:52:54;14.62;83.00
75457;SHT31;64036;48.266;14.192;2022-10-29T11:00:57;14.86;82.95
75457;SHT31;64036;48.266;14.192;2022-10-29T11:06:17;15.03;82.90
75457;SHT31;64036;48.266;14.192;2022-10-29T11:11:33;15.13;81.81
75457;SHT31;64036;48.266;14.192;2022-10-29T11:14:23;15.14;81.38
75457;SHT31;64036;48.266;14.192;2022-10-29T11:16:55;15.18;81.30
75457;SHT31;64036;48.266;14.192;2022-10-29T11:24:56;15.37;81.09
75457;SHT31;64036;48.266;14.192;2022-10-29T11:27:44;15.47;81.46
75457;SHT31;64036;48.266;14.192;2022-10-29T11:30:16;15.57;80.63
75457;SHT31;64036;48.266;14.192;2022-10-29T11:35:49;15.55;80.54
75457;SHT31;64036;48.266;14.192;2022-10-29T11:38:30;15.52;80.60
75457;SHT31;64036;48.266;14.192;2022-10-29T11:43:58;15.55;80.58
75457;SHT31;64036;48.266;14.192;2022-10-29T11:46:40;15.61;80.67
75457;SHT31;64036;48.266;14.192;2022-10-29T12:06:55;16.10;79.12
75457;SHT31;64036;48.266;14.192;2022-10-29T12:09:41;16.15;79.02
75457;SHT31;64036;48.266;14.192;2022-10-29T12:15:22;16.17;78.63
75457;SHT31;64036;48.266;14.192;2022-10-29T12:24:25;16.17;78.51
75457;SHT31;64036;48.266;14.192;2022-10-29T12:27:24;16.10;78.56
75457;SHT31;64036;48.266;14.192;2022-10-29T12:30:19;16.13;78.89
75457;SHT31;64036;48.266;14.192;2022-10-29T12:47:16;16.53;78.22
75457;SHT31;64036;48.266;14.192;2022-10-29T12:52:41;16.59;78.45
75457;SHT31;64036;48.266;14.192;2022-10-29T12:55:14;16.58;78.51
75457;SHT31;64036;48.266;14.192;2022-10-29T12:57:41;16.58;78.41
75457;SHT31;64036;48.266;14.192;2022-10-29T13:02:48;16.60;78.41
75457;SHT31;64036;48.266;14.192;2022-10-29T13:05:40;16.61;78.43
75457;SHT31;64036;48.266;14.192;2022-10-29T13:08:08;16.59;78.46
75457;SHT31;64036;48.266;14.192;2022-10-29T13:10:50;16.60;78.82
75457;SHT31;64036;48.266;14.192;2022-10-29T13:13:19;16.65;78.90
75457;SHT31;64036;48.266;14.192;2022-10-29T13:16:00;16.68;78.76
75457;SHT31;64036;48.266;14.192;2022-10-29T13:21:03;16.68;78.73
75457;SHT31;64036;48.266;14.192;2022-10-29T13:23:30;16.65;78.60
75457;SHT31;64036;48.266;14.192;2022-10-29T13:26:02;16.60;78.58
75457;SHT31;64036;48.266;14.192;2022-10-29T13:44:11;16.54;79.17
75457;SHT31;64036;48.266;14.192;2022-10-29T13:49:29;16.63;79.22
75457;SHT31;64036;48.266;14.192;2022-10-29T13:57:24;16.68;79.30
75457;SHT31;64036;48.266;14.192;2022-10-29T14:00:03;16.72;79.39
75457;SHT31;64036;48.266;14.192;2022-10-29T14:10:41;16.72;79.22
75457;SHT31;64036;48.266;14.192;2022-10-29T14:13:29;16.77;79.33
75457;SHT31;64036;48.266;14.192;2022-10-29T14:18:35;16.80;79.20
75457;SHT31;64036;48.266;14.192;2022-10-29T14:21:10;16.75;79.27
75457;SHT31;64036;48.266;14.192;2022-10-29T14:26:27;16.59;79.53
75457;SHT31;64036;48.266;14.192;2022-10-29T14:28:55;16.53;79.69
75457;SHT31;64036;48.266;14.192;2022-10-29T14:31:24;16.48;79.75
75457;SHT31;64036;48.266;14.192;2022-10-29T14:33:59;16.42;79.75
75457;SHT31;64036;48.266;14.192;2022-10-29T14:36:36;16.38;79.90
75457;SHT31;64036;48.266;14.192;2022-10-29T14:39:04;16.34;79.92
75457;SHT31;64036;48.266;14.192;2022-10-29T14:41:38;16.26;80.01
75457;SHT31;64036;48.266;14.192;2022-10-29T14:49:32;15.95;80.64
75457;SHT31;64036;48.266;14.192;2022-10-29T14:55:00;15.82;80.83
75457;SHT31;64036;48.266;14.192;2022-10-29T14:57:33;15.81;80.88
75457;SHT31;64036;48.266;14.192;2022-10-29T15:00:06;15.81;80.80
75457;SHT31;64036;48.266;14.192;2022-10-29T15:02:36;15.79;80.71
75457;SHT31;64036;48.266;14.192;2022-10-29T15:07:49;15.71;80.61
75457;SHT31;64036;48.266;14.192;2022-10-29T15:10:23;15.66;80.70
75457;SHT31;64036;48.266;14.192;2022-10-29T15:12:49;15.62;80.79
75457;SHT31;64036;48.266;14.192;2022-10-29T15:25:48;15.35;81.08
75457;SHT31;64036;48.266;14.192;2022-10-29T15:28:18;15.25;81.22
75457;SHT31;64036;48.266;14.192;2022-10-29T15:30:49;15.12;81.47
75457;SHT31;64036;48.266;14.192;2022-10-29T15:33:16;15.02;81.67
75457;SHT31;64036;48.266;14.192;2022-10-29T15:35:53;14.92;81.86
75457;SHT31;64036;48.266;14.192;2022-10-29T15:43:34;14.71;82.12
75457;SHT31;64036;48.266;14.192;2022-10-29T15:48:50;14.51;82.22
75457;SHT31;64036;48.266;14.192;2022-10-29T15:51:16;14.41;82.20
75457;SHT31;64036;48.266;14.192;2022-10-29T15:53:53;14.29;82.27
75457;SHT31;64036;48.266;14.192;2022-10-29T15:56:20;14.20;82.40
75457;SHT31;64036;48.266;14.192;2022-10-29T15:58:46;14.13;82.47
75457;SHT31;64036;48.266;14.192;2022-10-29T16:01:12;14.05;82.50
75457;SHT31;64036;48.266;14.192;2022-10-29T16:03:40;13.98;82.59
75457;SHT31;64036;48.266;14.192;2022-10-29T16:06:07;13.91;82.78
75457;SHT31;64036;48.266;14.192;2022-10-29T16:08:51;13.84;82.99
75457;SHT31;64036;48.266;14.192;2022-10-29T16:11:19;13.75;83.07
75457;SHT31;64036;48.266;14.192;2022-10-29T16:13:46;13.66;83.27
75457;SHT31;64036;48.266;14.192;2022-10-29T16:16:14;13.61;83.38
75457;SHT31;64036;48.266;14.192;2022-10-29T16:18:42;13.52;83.56
75457;SHT31;64036;48.266;14.192;2022-10-29T16:21:14;13.46;83.61
75457;SHT31;64036;48.266;14.192;2022-10-29T16:23:43;13.41;83.70
75457;SHT31;64036;48.266;14.192;2022-10-29T16:26:14;13.31;83.97
75457;SHT31;64036;48.266;14.192;2022-10-29T16:28:48;13.25;84.19
75457;SHT31;64036;48.266;14.192;2022-10-29T16:31:26;13.18;84.30
75457;SHT31;64036;48.266;14.192;2022-10-29T16:33:54;13.13;84.42
75457;SHT31;64036;48.266;14.192;2022-10-29T16:36:23;13.07;84.48
75457;SHT31;64036;48.266;14.192;2022-10-29T16:38:49;13.05;84.54
75457;SHT31;64036;48.266;14.192;2022-10-29T16:41:15;13.00;84.59
75457;SHT31;64036;48.266;14.192;2022-10-29T16:43:44;12.93;84.74
75457;SHT31;64036;48.266;14.192;2022-10-29T16:46:10;12.92;84.88
75457;SHT31;64036;48.266;14.192;2022-10-29T16:48:37;12.87;84.94
75457;SHT31;64036;48.266;14.192;2022-10-29T16:51:03;12.85;85.05
75457;SHT31;64036;48.266;14.192;2022-10-29T16:53:29;12.82;85.12
75457;SHT31;64036;48.266;14.192;2022-10-29T16:55:55;12.78;85.24
75457;SHT31;64036;48.266;14.192;2022-10-29T16:58:21;12.74;85.26
75457;SHT31;64036;48.266;14.192;2022-10-29T17:00:48;12.66;85.33
75457;SHT31;64036;48.266;14.192;2022-10-29T17:03:13;12.64;85.47
75457;SHT31;64036;48.266;14.192;2022-10-29T17:05:42;12.59;85.56
75457;SHT31;64036;48.266;14.192;2022-10-29T17:08:09;12.55;85.66
75457;SHT31;64036;48.266;14.192;2022-10-29T17:10:36;12.54;85.85
75457;SHT31;64036;48.266;14.192;2022-10-29T17:13:03;12.55;86.03
75457;SHT31;64036;48.266;14.192;2022-10-29T17:15:31;12.54;86.14
75457;SHT31;64036;48.266;14.192;2022-10-29T17:17:56;12.55;86.21
75457;SHT31;64036;48.266;14.192;2022-10-29T17:20:22;12.55;86.22
75457;SHT31;64036;48.266;14.192;2022-10-29T17:22:48;12.54;86.24
75457;SHT31;64036;48.266;14.192;2022-10-29T17:25:13;12.55;86.39
75457;SHT31;64036;48.266;14.192;2022-10-29T17:27:41;12.57;86.50
75457;SHT31;64036;48.266;14.192;2022-10-29T17:30:08;12.57;86.56
75457;SHT31;64036;48.266;14.192;2022-10-29T17:32:35;12.55;86.60
75457;SHT31;64036;48.266;14.192;2022-10-29T17:35:00;12.54;86.69
75457;SHT31;64036;48.266;14.192;2022-10-29T17:37:26;12.55;86.77
75457;SHT31;64036;48.266;14.192;2022-10-29T17:39:52;12.56;86.79
75457;SHT31;64036;48.266;14.192;2022-10-29T17:42:21;12.57;86.90
75457;SHT31;64036;48.266;14.192;2022-10-29T17:44:46;12.58;86.98
75457;SHT31;64036;48.266;14.192;2022-10-29T17:47:12;12.58;87.01
75457;SHT31;64036;48.266;14.192;2022-10-29T17:49:37;12.58;87.05
75457;SHT31;64036;48.266;14.192;2022-10-29T17:52:03;12.60;87.10
75457;SHT31;64036;48.266;14.192;2022-10-29T17:54:29;12.61;87.10
75457;SHT31;64036;48.266;14.192;2022-10-29T17:56:55;12.62;87.16
75457;SHT31;64036;48.266;14.192;2022-10-29T17:59:21;12.63;87.20
75457;SHT31;64036;48.266;14.192;2022-10-29T18:01:47;12.63;87.16
75457;SHT31;64036;48.266;14.192;2022-10-29T18:04:14;12.64;87.14
75457;SHT31;64036;48.266;14.192;2022-10-29T18:06:39;12.63;87.20
75457;SHT31;64036;48.266;14.192;2022-10-29T18:09:05;12.64;87.20
75457;SHT31;64036;48.266;14.192;2022-10-29T18:11:31;12.64;87.19
75457;SHT31;64036;48.266;14.192;2022-10-29T18:13:56;12.63;87.11
75457;SHT31;64036;48.266;14.192;2022-10-29T18:16:24;12.58;87.13
75457;SHT31;64036;48.266;14.192;2022-10-29T18:18:52;12.55;87.21
75457;SHT31;64036;48.266;14.192;2022-10-29T18:21:23;12.56;87.30
75457;SHT31;64036;48.266;14.192;2022-10-29T18:23:50;12.54;87.35
75457;SHT31;64036;48.266;14.192;2022-10-29T18:26:26;12.52;87.40
75457;SHT31;64036;48.266;14.192;2022-10-29T18:28:58;12.51;87.47
75457;SHT31;64036;48.266;14.192;2022-10-29T18:31:27;12.49;87.53
75457;SHT31;64036;48.266;14.192;2022-10-29T18:33:55;12.49;87.65
75457;SHT31;64036;48.266;14.192;2022-10-29T18:36:25;12.47;87.49
75457;SHT31;64036;48.266;14.192;2022-10-29T18:38:52;12.43;87.31
75457;SHT31;64036;48.266;14.192;2022-10-29T18:41:21;12.39;87.30
75457;SHT31;64036;48.266;14.192;2022-10-29T18:43:47;12.35;87.22
75457;SHT31;64036;48.266;14.192;2022-10-29T18:46:13;12.32;87.20
75457;SHT31;64036;48.266;14.192;2022-10-29T18:48:40;12.28;87.09
75457;SHT31;64036;48.266;14.192;2022-10-29T18:51:13;12.21;86.92
75457;SHT31;64036;48.266;14.192;2022-10-29T18:53:43;12.14;86.96
75457;SHT31;64036;48.266;14.192;2022-10-29T18:56:10;12.11;87.00
75457;SHT31;64036;48.266;14.192;2022-10-29T18:58:39;12.08;87.00
75457;SHT31;64036;48.266;14.192;2022-10-29T19:01:06;12.04;86.92